NCAR-RAP Real-Time Weather Data

Output produced by METARs form (10 April 2020  07:22 UTC)
found at http://weather.rap.ucar.edu/surface/
 
KMSO 100653Z AUTO 16003KT 10SM CLR 06/M03 A2995 RMK AO2 SLP146 T00611028 402061022
KMSO 100553Z AUTO 36003KT 10SM CLR 06/M03 A2994 RMK AO2 SLP146 T00561028 10200 20056 51007
KMSO 100453Z AUTO 03003KT 10SM CLR 07/M02 A2994 RMK AO2 SLP146 T00671017
KMSO 100353Z AUTO 30003KT 10SM CLR 11/M02 A2994 RMK AO2 SLP144 T01061022
KMSO 100253Z 35005KT 10SM CLR 11/M02 A2992 RMK AO2 SLP139 T01111022 55008
KMSO 100153Z 00000KT 10SM CLR 18/M03 A2991 RMK AO2 SLP133 T01781028
KMSO 100053Z 35005KT 10SM CLR 19/M04 A2993 RMK AO2 SLP136 T01941039
KMSO 092353Z 36005KT 10SM CLR 20/M04 A2994 RMK AO2 SLP142 T02001039 10206 20111 56025
KMSO 092253Z 33005KT 10SM CLR 19/M04 A2996 RMK AO2 SLP149 T01941044
KMSO 092153Z 30005KT 10SM CLR 19/M04 A2999 RMK AO2 SLP159 T01891044
KMSO 092053Z 30006KT 10SM CLR 18/M04 A3002 RMK AO2 SLP170 T01831044 58029
KMSO 091953Z VRB05KT 10SM CLR 16/M04 A3006 RMK AO2 SLP181 T01611039
KMSO 091853Z VRB05KT 10SM CLR 14/M04 A3009 RMK AO2 SLP194 T01391039
KMSO 091753Z 00000KT 10SM CLR 11/M03 A3012 RMK AO2 SLP207 T01111028 10111 21022 58021
KMSO 091653Z 00000KT 10SM CLR 09/M03 A3014 RMK AO2 SLP214 T00891033
KMSO 091553Z 14003KT 10SM CLR 06/M03 A3016 RMK AO2 SLP224 T00611028
KMSO 091453Z 00000KT 10SM CLR 03/M03 A3018 RMK AO2 SLP231 T00331033 50002
KMSO 091353Z 32003KT 10SM CLR M01/M04 A3019 RMK AO2 SLP235 T10061044
KMSO 091253Z 05003KT 10SM CLR 00/M05 A3018 RMK AO2 SLP230 T00001050
KMSO 091153Z 00000KT 10SM CLR M01/M06 A3018 RMK AO2 SLP226 T10061056 10061 21011 51002
KMSO 091053Z AUTO 00000KT 10SM CLR 01/M05 A3017 RMK AO2 SLP222 T00061050
KMSO 090953Z AUTO 07003KT 10SM CLR 01/M06 A3017 RMK AO2 SLP222 T00111061